sensor_id;sensor_type;location;lat;lon;timestamp;P1;durP1;ratioP1;P2;durP2;ratioP2
58842;SDS011;44614;54.356;10.100;2023-03-23T00:01:11;17.70;;;8.40;;
58842;SDS011;44614;54.356;10.100;2023-03-23T00:03:44;18.40;;;8.77;;
58842;SDS011;44614;54.356;10.100;2023-03-23T00:06:10;15.60;;;7.97;;
58842;SDS011;44614;54.356;10.100;2023-03-23T00:08:42;16.48;;;8.43;;
58842;SDS011;44614;54.356;10.100;2023-03-23T00:13:43;14.60;;;7.68;;
58842;SDS011;44614;54.356;10.100;2023-03-23T00:16:09;20.83;;;9.23;;
58842;SDS011;44614;54.356;10.100;2023-03-23T00:18:43;21.02;;;7.82;;
58842;SDS011;44614;54.356;10.100;2023-03-23T00:21:12;18.05;;;8.52;;
58842;SDS011;44614;54.356;10.100;2023-03-23T00:23:37;19.73;;;8.38;;
58842;SDS011;44614;54.356;10.100;2023-03-23T00:26:04;16.35;;;6.40;;
58842;SDS011;44614;54.356;10.100;2023-03-23T00:28:29;20.80;;;8.52;;
58842;SDS011;44614;54.356;10.100;2023-03-23T00:30:58;15.15;;;7.18;;
58842;SDS011;44614;54.356;10.100;2023-03-23T00:33:30;13.02;;;7.07;;
58842;SDS011;44614;54.356;10.100;2023-03-23T00:36:03;18.45;;;7.85;;
58842;SDS011;44614;54.356;10.100;2023-03-23T00:38:29;18.20;;;7.18;;
58842;SDS011;44614;54.356;10.100;2023-03-23T00:40:55;17.73;;;7.55;;
58842;SDS011;44614;54.356;10.100;2023-03-23T00:43:22;17.77;;;8.05;;
58842;SDS011;44614;54.356;10.100;2023-03-23T00:45:50;14.77;;;7.13;;
58842;SDS011;44614;54.356;10.100;2023-03-23T00:48:18;15.13;;;7.05;;
58842;SDS011;44614;54.356;10.100;2023-03-23T00:50:48;17.48;;;8.27;;
58842;SDS011;44614;54.356;10.100;2023-03-23T00:53:14;18.50;;;8.70;;
58842;SDS011;44614;54.356;10.100;2023-03-23T00:55:41;15.10;;;6.78;;
58842;SDS011;44614;54.356;10.100;2023-03-23T00:58:07;18.60;;;7.78;;
58842;SDS011;44614;54.356;10.100;2023-03-23T01:00:33;14.70;;;6.65;;
58842;SDS011;44614;54.356;10.100;2023-03-23T01:02:59;14.93;;;7.32;;
58842;SDS011;44614;54.356;10.100;2023-03-23T01:05:24;15.70;;;7.45;;
58842;SDS011;44614;54.356;10.100;2023-03-23T01:07:57;16.83;;;8.15;;
58842;SDS011;44614;54.356;10.100;2023-03-23T01:10:24;12.82;;;6.38;;
58842;SDS011;44614;54.356;10.100;2023-03-23T01:12:51;17.50;;;6.85;;
58842;SDS011;44614;54.356;10.100;2023-03-23T01:15:18;15.10;;;6.35;;
58842;SDS011;44614;54.356;10.100;2023-03-23T01:17:44;14.90;;;6.97;;
58842;SDS011;44614;54.356;10.100;2023-03-23T01:20:10;11.55;;;5.68;;
58842;SDS011;44614;54.356;10.100;2023-03-23T01:22:38;15.27;;;6.20;;
58842;SDS011;44614;54.356;10.100;2023-03-23T01:25:05;16.20;;;6.85;;
58842;SDS011;44614;54.356;10.100;2023-03-23T01:27:31;13.48;;;6.13;;
58842;SDS011;44614;54.356;10.100;2023-03-23T01:29:57;14.35;;;6.45;;
58842;SDS011;44614;54.356;10.100;2023-03-23T01:32:22;11.80;;;5.68;;
58842;SDS011;44614;54.356;10.100;2023-03-23T01:34:47;16.67;;;7.45;;
58842;SDS011;44614;54.356;10.100;2023-03-23T01:37:13;13.30;;;5.55;;
58842;SDS011;44614;54.356;10.100;2023-03-23T01:39:40;13.32;;;5.55;;
58842;SDS011;44614;54.356;10.100;2023-03-23T01:42:07;11.70;;;6.32;;
58842;SDS011;44614;54.356;10.100;2023-03-23T01:46:58;10.33;;;5.43;;
58842;SDS011;44614;54.356;10.100;2023-03-23T01:49:25;12.10;;;5.32;;
58842;SDS011;44614;54.356;10.100;2023-03-23T01:52:00;9.40;;;3.42;;
58842;SDS011;44614;54.356;10.100;2023-03-23T01:54:35;9.93;;;4.75;;
58842;SDS011;44614;54.356;10.100;2023-03-23T01:59:31;8.25;;;4.38;;
58842;SDS011;44614;54.356;10.100;2023-03-23T02:01:58;8.60;;;3.67;;
58842;SDS011;44614;54.356;10.100;2023-03-23T02:04:25;5.57;;;3.20;;
58842;SDS011;44614;54.356;10.100;2023-03-23T02:06:52;8.82;;;3.95;;
58842;SDS011;44614;54.356;10.100;2023-03-23T02:09:19;6.95;;;3.78;;
58842;SDS011;44614;54.356;10.100;2023-03-23T02:11:45;8.30;;;3.43;;
58842;SDS011;44614;54.356;10.100;2023-03-23T02:14:12;8.45;;;3.97;;
58842;SDS011;44614;54.356;10.100;2023-03-23T02:30:57;8.50;;;3.10;;
58842;SDS011;44614;54.356;10.100;2023-03-23T02:36:53;6.82;;;2.90;;
58842;SDS011;44614;54.356;10.100;2023-03-23T02:39:50;9.80;;;3.38;;
58842;SDS011;44614;54.356;10.100;2023-03-23T02:42:23;7.50;;;3.42;;
58842;SDS011;44614;54.356;10.100;2023-03-23T02:44:53;8.68;;;3.65;;
58842;SDS011;44614;54.356;10.100;2023-03-23T02:47:22;9.90;;;3.58;;
58842;SDS011;44614;54.356;10.100;2023-03-23T02:49:51;9.80;;;3.88;;
58842;SDS011;44614;54.356;10.100;2023-03-23T02:52:21;9.60;;;3.88;;
58842;SDS011;44614;54.356;10.100;2023-03-23T02:54:50;11.75;;;4.18;;
58842;SDS011;44614;54.356;10.100;2023-03-23T02:57:18;10.48;;;3.97;;
58842;SDS011;44614;54.356;10.100;2023-03-23T02:59:45;9.05;;;3.92;;
58842;SDS011;44614;54.356;10.100;2023-03-23T03:05:14;8.98;;;3.53;;
58842;SDS011;44614;54.356;10.100;2023-03-23T03:08:15;10.45;;;4.32;;
58842;SDS011;44614;54.356;10.100;2023-03-23T03:11:07;9.55;;;3.70;;
58842;SDS011;44614;54.356;10.100;2023-03-23T03:13:38;10.43;;;4.22;;
58842;SDS011;44614;54.356;10.100;2023-03-23T03:16:10;8.60;;;4.63;;
58842;SDS011;44614;54.356;10.100;2023-03-23T03:18:58;9.93;;;3.95;;
58842;SDS011;44614;54.356;10.100;2023-03-23T03:21:27;8.73;;;3.90;;
58842;SDS011;44614;54.356;10.100;2023-03-23T03:23:55;6.95;;;2.85;;
58842;SDS011;44614;54.356;10.100;2023-03-23T03:26:24;10.73;;;4.35;;
58842;SDS011;44614;54.356;10.100;2023-03-23T03:28:51;11.95;;;3.85;;
58842;SDS011;44614;54.356;10.100;2023-03-23T03:31:19;11.95;;;5.00;;
58842;SDS011;44614;54.356;10.100;2023-03-23T03:33:48;8.10;;;3.80;;
58842;SDS011;44614;54.356;10.100;2023-03-23T03:36:16;7.75;;;3.47;;
58842;SDS011;44614;54.356;10.100;2023-03-23T03:38:46;6.35;;;2.65;;
58842;SDS011;44614;54.356;10.100;2023-03-23T03:41:14;6.90;;;3.03;;
58842;SDS011;44614;54.356;10.100;2023-03-23T03:43:39;6.00;;;2.38;;
58842;SDS011;44614;54.356;10.100;2023-03-23T03:46:05;6.05;;;2.45;;
58842;SDS011;44614;54.356;10.100;2023-03-23T03:48:30;7.32;;;3.03;;
58842;SDS011;44614;54.356;10.100;2023-03-23T03:50:55;6.82;;;2.90;;
58842;SDS011;44614;54.356;10.100;2023-03-23T03:53:22;4.97;;;2.63;;
58842;SDS011;44614;54.356;10.100;2023-03-23T03:55:48;5.40;;;2.33;;
58842;SDS011;44614;54.356;10.100;2023-03-23T03:58:14;5.43;;;2.20;;
58842;SDS011;44614;54.356;10.100;2023-03-23T04:00:41;5.28;;;2.20;;
58842;SDS011;44614;54.356;10.100;2023-03-23T04:03:06;7.07;;;2.03;;
58842;SDS011;44614;54.356;10.100;2023-03-23T04:05:32;3.95;;;1.55;;
58842;SDS011;44614;54.356;10.100;2023-03-23T04:07:58;3.58;;;1.50;;
58842;SDS011;44614;54.356;10.100;2023-03-23T04:10:27;5.07;;;2.13;;
58842;SDS011;44614;54.356;10.100;2023-03-23T04:12:54;6.03;;;2.10;;
58842;SDS011;44614;54.356;10.100;2023-03-23T04:15:20;6.13;;;2.05;;
58842;SDS011;44614;54.356;10.100;2023-03-23T04:17:46;4.72;;;1.88;;
58842;SDS011;44614;54.356;10.100;2023-03-23T04:20:12;4.13;;;1.88;;
58842;SDS011;44614;54.356;10.100;2023-03-23T04:22:42;5.10;;;2.17;;
58842;SDS011;44614;54.356;10.100;2023-03-23T04:25:09;6.18;;;2.50;;
58842;SDS011;44614;54.356;10.100;2023-03-23T04:27:37;3.22;;;1.38;;
58842;SDS011;44614;54.356;10.100;2023-03-23T04:30:04;4.60;;;1.27;;
58842;SDS011;44614;54.356;10.100;2023-03-23T04:32:31;7.40;;;2.50;;
58842;SDS011;44614;54.356;10.100;2023-03-23T04:34:57;5.22;;;1.67;;
58842;SDS011;44614;54.356;10.100;2023-03-23T04:37:24;2.25;;;1.02;;
58842;SDS011;44614;54.356;10.100;2023-03-23T04:39:54;1.50;;;1.00;;
58842;SDS011;44614;54.356;10.100;2023-03-23T04:42:32;3.13;;;1.00;;
58842;SDS011;44614;54.356;10.100;2023-03-23T04:44:58;1.90;;;1.08;;
58842;SDS011;44614;54.356;10.100;2023-03-23T04:47:24;3.03;;;1.33;;
58842;SDS011;44614;54.356;10.100;2023-03-23T04:49:54;4.30;;;1.08;;
58842;SDS011;44614;54.356;10.100;2023-03-23T04:52:23;3.53;;;1.23;;
58842;SDS011;44614;54.356;10.100;2023-03-23T04:54:50;2.83;;;0.85;;
58842;SDS011;44614;54.356;10.100;2023-03-23T04:57:15;1.83;;;0.77;;
58842;SDS011;44614;54.356;10.100;2023-03-23T04:59:41;2.08;;;0.82;;
58842;SDS011;44614;54.356;10.100;2023-03-23T05:02:07;2.53;;;0.88;;
58842;SDS011;44614;54.356;10.100;2023-03-23T05:04:32;1.35;;;0.68;;
58842;SDS011;44614;54.356;10.100;2023-03-23T05:06:58;3.17;;;0.63;;
58842;SDS011;44614;54.356;10.100;2023-03-23T05:09:24;3.83;;;0.88;;
58842;SDS011;44614;54.356;10.100;2023-03-23T05:11:49;1.73;;;0.60;;
58842;SDS011;44614;54.356;10.100;2023-03-23T05:14:14;4.25;;;0.82;;
58842;SDS011;44614;54.356;10.100;2023-03-23T05:16:40;0.88;;;0.50;;
58842;SDS011;44614;54.356;10.100;2023-03-23T05:19:05;3.03;;;0.60;;
58842;SDS011;44614;54.356;10.100;2023-03-23T05:21:32;1.38;;;0.63;;
58842;SDS011;44614;54.356;10.100;2023-03-23T05:23:57;1.45;;;1.27;;
58842;SDS011;44614;54.356;10.100;2023-03-23T05:26:25;3.75;;;1.23;;
58842;SDS011;44614;54.356;10.100;2023-03-23T05:28:54;4.00;;;1.40;;
58842;SDS011;44614;54.356;10.100;2023-03-23T05:33:46;2.70;;;1.45;;
58842;SDS011;44614;54.356;10.100;2023-03-23T05:36:11;3.63;;;1.67;;
58842;SDS011;44614;54.356;10.100;2023-03-23T05:38:38;8.05;;;3.90;;
58842;SDS011;44614;54.356;10.100;2023-03-23T05:41:07;7.10;;;2.75;;
58842;SDS011;44614;54.356;10.100;2023-03-23T05:43:33;6.47;;;3.30;;
58842;SDS011;44614;54.356;10.100;2023-03-23T05:45:58;9.30;;;4.38;;
58842;SDS011;44614;54.356;10.100;2023-03-23T05:48:24;8.98;;;3.85;;
58842;SDS011;44614;54.356;10.100;2023-03-23T05:50:49;11.05;;;5.28;;
58842;SDS011;44614;54.356;10.100;2023-03-23T05:53:15;12.10;;;5.97;;
58842;SDS011;44614;54.356;10.100;2023-03-23T05:55:41;12.48;;;6.68;;
58842;SDS011;44614;54.356;10.100;2023-03-23T05:58:06;11.50;;;6.03;;
58842;SDS011;44614;54.356;10.100;2023-03-23T06:00:31;15.23;;;6.97;;
58842;SDS011;44614;54.356;10.100;2023-03-23T06:02:57;13.57;;;7.63;;
58842;SDS011;44614;54.356;10.100;2023-03-23T06:05:23;17.35;;;7.80;;
58842;SDS011;44614;54.356;10.100;2023-03-23T06:07:50;14.43;;;6.50;;
58842;SDS011;44614;54.356;10.100;2023-03-23T06:10:17;15.77;;;7.97;;
58842;SDS011;44614;54.356;10.100;2023-03-23T06:12:42;19.60;;;9.85;;
58842;SDS011;44614;54.356;10.100;2023-03-23T06:15:09;15.60;;;7.75;;
58842;SDS011;44614;54.356;10.100;2023-03-23T06:17:35;16.63;;;7.47;;
58842;SDS011;44614;54.356;10.100;2023-03-23T06:20:02;19.00;;;8.60;;
58842;SDS011;44614;54.356;10.100;2023-03-23T06:22:33;13.57;;;7.07;;
58842;SDS011;44614;54.356;10.100;2023-03-23T06:24:59;16.92;;;8.20;;
58842;SDS011;44614;54.356;10.100;2023-03-23T06:27:25;18.77;;;8.10;;
58842;SDS011;44614;54.356;10.100;2023-03-23T06:29:50;20.90;;;8.75;;
58842;SDS011;44614;54.356;10.100;2023-03-23T06:32:16;14.77;;;7.95;;
58842;SDS011;44614;54.356;10.100;2023-03-23T06:34:41;15.68;;;7.88;;
58842;SDS011;44614;54.356;10.100;2023-03-23T06:37:09;14.43;;;8.52;;
58842;SDS011;44614;54.356;10.100;2023-03-23T06:39:35;18.75;;;8.70;;
58842;SDS011;44614;54.356;10.100;2023-03-23T06:42:03;19.95;;;8.35;;
58842;SDS011;44614;54.356;10.100;2023-03-23T06:44:28;16.73;;;8.00;;
58842;SDS011;44614;54.356;10.100;2023-03-23T06:46:54;15.13;;;8.10;;
58842;SDS011;44614;54.356;10.100;2023-03-23T06:49:19;15.07;;;7.18;;
58842;SDS011;44614;54.356;10.100;2023-03-23T06:51:45;13.20;;;6.97;;
58842;SDS011;44614;54.356;10.100;2023-03-23T06:54:10;19.20;;;8.27;;
58842;SDS011;44614;54.356;10.100;2023-03-23T06:56:36;12.93;;;7.03;;
58842;SDS011;44614;54.356;10.100;2023-03-23T06:59:01;18.70;;;6.95;;
58842;SDS011;44614;54.356;10.100;2023-03-23T07:03:54;17.52;;;6.78;;
58842;SDS011;44614;54.356;10.100;2023-03-23T07:08:46;12.55;;;5.72;;
58842;SDS011;44614;54.356;10.100;2023-03-23T07:11:11;15.57;;;7.10;;
58842;SDS011;44614;54.356;10.100;2023-03-23T07:13:37;13.30;;;6.90;;
58842;SDS011;44614;54.356;10.100;2023-03-23T07:16:06;9.35;;;5.50;;
58842;SDS011;44614;54.356;10.100;2023-03-23T07:18:32;12.70;;;5.53;;
58842;SDS011;44614;54.356;10.100;2023-03-23T07:20:57;8.95;;;5.05;;
58842;SDS011;44614;54.356;10.100;2023-03-23T07:23:23;11.50;;;5.20;;
58842;SDS011;44614;54.356;10.100;2023-03-23T07:25:48;10.20;;;4.53;;
58842;SDS011;44614;54.356;10.100;2023-03-23T07:28:14;10.32;;;4.35;;
58842;SDS011;44614;54.356;10.100;2023-03-23T07:30:40;8.97;;;4.67;;
58842;SDS011;44614;54.356;10.100;2023-03-23T07:33:06;7.95;;;4.13;;
58842;SDS011;44614;54.356;10.100;2023-03-23T07:35:33;11.07;;;4.70;;
58842;SDS011;44614;54.356;10.100;2023-03-23T07:37:59;10.27;;;4.63;;
58842;SDS011;44614;54.356;10.100;2023-03-23T07:40:25;10.52;;;4.82;;
58842;SDS011;44614;54.356;10.100;2023-03-23T07:42:54;8.15;;;5.22;;
58842;SDS011;44614;54.356;10.100;2023-03-23T07:45:21;10.15;;;4.32;;
58842;SDS011;44614;54.356;10.100;2023-03-23T07:47:47;8.97;;;3.93;;
58842;SDS011;44614;54.356;10.100;2023-03-23T07:50:12;13.20;;;4.00;;
58842;SDS011;44614;54.356;10.100;2023-03-23T07:52:38;7.30;;;3.58;;
58842;SDS011;44614;54.356;10.100;2023-03-23T07:55:05;8.13;;;3.25;;
58842;SDS011;44614;54.356;10.100;2023-03-23T07:57:31;7.68;;;3.33;;
58842;SDS011;44614;54.356;10.100;2023-03-23T07:59:57;8.32;;;3.13;;
58842;SDS011;44614;54.356;10.100;2023-03-23T08:04:50;8.38;;;2.45;;
58842;SDS011;44614;54.356;10.100;2023-03-23T08:07:16;3.50;;;2.00;;
58842;SDS011;44614;54.356;10.100;2023-03-23T08:09:44;2.75;;;1.90;;
58842;SDS011;44614;54.356;10.100;2023-03-23T08:12:09;8.57;;;2.22;;
58842;SDS011;44614;54.356;10.100;2023-03-23T08:14:35;3.08;;;1.98;;
58842;SDS011;44614;54.356;10.100;2023-03-23T08:17:00;6.97;;;2.35;;
58842;SDS011;44614;54.356;10.100;2023-03-23T08:19:25;2.40;;;1.65;;
58842;SDS011;44614;54.356;10.100;2023-03-23T08:21:51;3.50;;;1.60;;
58842;SDS011;44614;54.356;10.100;2023-03-23T08:24:17;7.60;;;1.90;;
58842;SDS011;44614;54.356;10.100;2023-03-23T08:26:43;3.87;;;1.80;;
58842;SDS011;44614;54.356;10.100;2023-03-23T08:29:09;4.45;;;1.50;;
58842;SDS011;44614;54.356;10.100;2023-03-23T08:31:34;4.85;;;1.83;;
58842;SDS011;44614;54.356;10.100;2023-03-23T08:34:01;2.40;;;1.27;;
58842;SDS011;44614;54.356;10.100;2023-03-23T08:36:26;3.65;;;1.60;;
58842;SDS011;44614;54.356;10.100;2023-03-23T08:38:53;5.57;;;1.70;;
58842;SDS011;44614;54.356;10.100;2023-03-23T08:41:19;9.32;;;2.15;;
58842;SDS011;44614;54.356;10.100;2023-03-23T08:43:44;2.67;;;0.95;;
58842;SDS011;44614;54.356;10.100;2023-03-23T08:46:09;3.92;;;1.48;;
58842;SDS011;44614;54.356;10.100;2023-03-23T08:48:36;7.03;;;1.73;;
58842;SDS011;44614;54.356;10.100;2023-03-23T08:51:04;5.55;;;1.60;;
58842;SDS011;44614;54.356;10.100;2023-03-23T08:53:30;2.67;;;1.00;;
58842;SDS011;44614;54.356;10.100;2023-03-23T08:58:28;4.18;;;1.40;;
58842;SDS011;44614;54.356;10.100;2023-03-23T09:00:54;9.98;;;1.17;;
58842;SDS011;44614;54.356;10.100;2023-03-23T09:03:19;10.15;;;2.15;;
58842;SDS011;44614;54.356;10.100;2023-03-23T09:05:44;5.00;;;1.20;;
58842;SDS011;44614;54.356;10.100;2023-03-23T09:08:11;5.40;;;1.30;;
58842;SDS011;44614;54.356;10.100;2023-03-23T09:10:37;3.30;;;0.88;;
58842;SDS011;44614;54.356;10.100;2023-03-23T09:13:03;3.53;;;1.13;;
58842;SDS011;44614;54.356;10.100;2023-03-23T09:15:30;2.42;;;1.25;;
58842;SDS011;44614;54.356;10.100;2023-03-23T09:17:56;7.13;;;1.23;;
58842;SDS011;44614;54.356;10.100;2023-03-23T09:20:23;4.40;;;1.23;;
58842;SDS011;44614;54.356;10.100;2023-03-23T09:22:50;3.88;;;1.02;;
58842;SDS011;44614;54.356;10.100;2023-03-23T09:25:18;3.78;;;1.05;;
58842;SDS011;44614;54.356;10.100;2023-03-23T09:27:48;5.55;;;1.60;;
58842;SDS011;44614;54.356;10.100;2023-03-23T09:30:18;5.75;;;0.98;;
58842;SDS011;44614;54.356;10.100;2023-03-23T09:32:45;5.90;;;0.98;;
58842;SDS011;44614;54.356;10.100;2023-03-23T09:35:13;7.80;;;1.30;;
58842;SDS011;44614;54.356;10.100;2023-03-23T09:37:41;4.13;;;1.20;;
58842;SDS011;44614;54.356;10.100;2023-03-23T09:40:13;3.03;;;0.85;;
58842;SDS011;44614;54.356;10.100;2023-03-23T09:51:44;4.82;;;1.30;;
58842;SDS011;44614;54.356;10.100;2023-03-23T09:54:12;7.30;;;1.60;;
58842;SDS011;44614;54.356;10.100;2023-03-23T09:56:45;8.93;;;2.13;;
58842;SDS011;44614;54.356;10.100;2023-03-23T10:02:11;3.53;;;1.60;;
58842;SDS011;44614;54.356;10.100;2023-03-23T10:04:49;4.47;;;1.40;;
58842;SDS011;44614;54.356;10.100;2023-03-23T10:07:20;11.55;;;1.58;;
58842;SDS011;44614;54.356;10.100;2023-03-23T10:09:52;8.52;;;1.63;;
58842;SDS011;44614;54.356;10.100;2023-03-23T10:12:21;3.05;;;1.27;;
58842;SDS011;44614;54.356;10.100;2023-03-23T10:15:14;7.47;;;1.80;;
58842;SDS011;44614;54.356;10.100;2023-03-23T10:18:02;4.30;;;1.20;;
58842;SDS011;44614;54.356;10.100;2023-03-23T10:20:37;5.18;;;1.20;;
58842;SDS011;44614;54.356;10.100;2023-03-23T10:26:06;12.60;;;1.38;;
58842;SDS011;44614;54.356;10.100;2023-03-23T10:28:52;3.47;;;1.90;;
58842;SDS011;44614;54.356;10.100;2023-03-23T10:31:22;4.53;;;1.50;;
58842;SDS011;44614;54.356;10.100;2023-03-23T10:33:54;16.70;;;2.83;;
58842;SDS011;44614;54.356;10.100;2023-03-23T10:36:24;1.20;;;0.57;;
58842;SDS011;44614;54.356;10.100;2023-03-23T10:39:03;4.75;;;0.63;;
58842;SDS011;44614;54.356;10.100;2023-03-23T10:41:36;3.85;;;0.70;;
58842;SDS011;44614;54.356;10.100;2023-03-23T10:44:07;7.50;;;1.55;;
58842;SDS011;44614;54.356;10.100;2023-03-23T10:49:21;5.15;;;1.13;;
58842;SDS011;44614;54.356;10.100;2023-03-23T10:54:57;6.07;;;0.90;;
58842;SDS011;44614;54.356;10.100;2023-03-23T10:59:57;3.83;;;0.68;;
58842;SDS011;44614;54.356;10.100;2023-03-23T11:02:31;1.55;;;0.70;;
58842;SDS011;44614;54.356;10.100;2023-03-23T11:04:59;6.75;;;0.90;;
58842;SDS011;44614;54.356;10.100;2023-03-23T11:07:28;2.60;;;0.90;;
58842;SDS011;44614;54.356;10.100;2023-03-23T11:09:56;4.00;;;0.88;;
58842;SDS011;44614;54.356;10.100;2023-03-23T11:12:28;1.38;;;1.13;;
58842;SDS011;44614;54.356;10.100;2023-03-23T11:15:03;5.47;;;0.82;;
58842;SDS011;44614;54.356;10.100;2023-03-23T11:17:40;4.55;;;0.93;;
58842;SDS011;44614;54.356;10.100;2023-03-23T11:20:10;2.70;;;1.17;;
58842;SDS011;44614;54.356;10.100;2023-03-23T11:22:37;4.70;;;1.10;;
58842;SDS011;44614;54.356;10.100;2023-03-23T11:25:04;4.10;;;1.53;;
58842;SDS011;44614;54.356;10.100;2023-03-23T11:27:31;6.75;;;1.00;;
58842;SDS011;44614;54.356;10.100;2023-03-23T11:30:08;4.93;;;0.85;;
58842;SDS011;44614;54.356;10.100;2023-03-23T11:32:35;3.85;;;1.00;;
58842;SDS011;44614;54.356;10.100;2023-03-23T11:35:06;3.97;;;1.20;;
58842;SDS011;44614;54.356;10.100;2023-03-23T11:37:41;5.97;;;1.10;;
58842;SDS011;44614;54.356;10.100;2023-03-23T11:42:37;5.32;;;1.38;;
58842;SDS011;44614;54.356;10.100;2023-03-23T11:50:17;9.63;;;1.80;;
58842;SDS011;44614;54.356;10.100;2023-03-23T11:53:30;7.57;;;1.73;;
58842;SDS011;44614;54.356;10.100;2023-03-23T11:58:14;8.20;;;1.30;;
58842;SDS011;44614;54.356;10.100;2023-03-23T12:00:45;13.30;;;1.30;;
58842;SDS011;44614;54.356;10.100;2023-03-23T12:06:33;5.53;;;1.35;;
58842;SDS011;44614;54.356;10.100;2023-03-23T12:09:10;6.07;;;1.50;;
58842;SDS011;44614;54.356;10.100;2023-03-23T12:30:57;11.85;;;1.98;;
58842;SDS011;44614;54.356;10.100;2023-03-23T12:44:30;9.75;;;1.85;;
58842;SDS011;44614;54.356;10.100;2023-03-23T12:49:50;6.95;;;2.38;;
58842;SDS011;44614;54.356;10.100;2023-03-23T12:52:33;15.15;;;1.67;;
58842;SDS011;44614;54.356;10.100;2023-03-23T12:55:09;6.85;;;1.70;;
58842;SDS011;44614;54.356;10.100;2023-03-23T12:57:56;5.38;;;1.50;;
58842;SDS011;44614;54.356;10.100;2023-03-23T13:00:30;11.60;;;1.80;;
58842;SDS011;44614;54.356;10.100;2023-03-23T13:05:43;8.68;;;1.42;;
58842;SDS011;44614;54.356;10.100;2023-03-23T13:08:22;13.65;;;1.95;;
58842;SDS011;44614;54.356;10.100;2023-03-23T13:10:55;10.30;;;2.10;;
58842;SDS011;44614;54.356;10.100;2023-03-23T13:13:25;10.27;;;2.38;;
58842;SDS011;44614;54.356;10.100;2023-03-23T13:16:18;12.40;;;2.45;;
58842;SDS011;44614;54.356;10.100;2023-03-23T13:22:20;9.43;;;2.13;;
58842;SDS011;44614;54.356;10.100;2023-03-23T13:24:28;8.63;;;1.60;;
58842;SDS011;44614;54.356;10.100;2023-03-23T13:26:58;5.95;;;2.13;;
58842;SDS011;44614;54.356;10.100;2023-03-23T13:29:26;6.32;;;1.67;;
58842;SDS011;44614;54.356;10.100;2023-03-23T13:32:03;8.93;;;2.00;;
58842;SDS011;44614;54.356;10.100;2023-03-23T13:34:37;6.05;;;2.22;;
58842;SDS011;44614;54.356;10.100;2023-03-23T13:37:08;9.82;;;2.03;;
58842;SDS011;44614;54.356;10.100;2023-03-23T13:39:38;9.65;;;2.53;;
58842;SDS011;44614;54.356;10.100;2023-03-23T13:55:08;7.28;;;1.70;;
58842;SDS011;44614;54.356;10.100;2023-03-23T14:05:42;11.82;;;2.72;;
58842;SDS011;44614;54.356;10.100;2023-03-23T14:08:11;10.60;;;2.22;;
58842;SDS011;44614;54.356;10.100;2023-03-23T14:14:03;15.73;;;2.38;;
58842;SDS011;44614;54.356;10.100;2023-03-23T14:16:23;17.00;;;1.88;;
58842;SDS011;44614;54.356;10.100;2023-03-23T14:18:58;7.00;;;1.80;;
58842;SDS011;44614;54.356;10.100;2023-03-23T14:21:30;16.45;;;2.83;;
58842;SDS011;44614;54.356;10.100;2023-03-23T14:24:06;11.55;;;2.33;;
58842;SDS011;44614;54.356;10.100;2023-03-23T14:26:36;12.13;;;1.88;;
58842;SDS011;44614;54.356;10.100;2023-03-23T14:29:02;16.20;;;2.03;;
58842;SDS011;44614;54.356;10.100;2023-03-23T14:31:29;10.25;;;1.75;;
58842;SDS011;44614;54.356;10.100;2023-03-23T14:33:56;6.55;;;1.83;;
58842;SDS011;44614;54.356;10.100;2023-03-23T14:36:28;8.18;;;2.17;;
58842;SDS011;44614;54.356;10.100;2023-03-23T14:38:59;10.98;;;2.70;;
58842;SDS011;44614;54.356;10.100;2023-03-23T14:41:28;12.07;;;1.95;;
58842;SDS011;44614;54.356;10.100;2023-03-23T14:43:55;14.73;;;2.58;;
58842;SDS011;44614;54.356;10.100;2023-03-23T14:46:22;11.30;;;2.38;;
58842;SDS011;44614;54.356;10.100;2023-03-23T14:48:49;6.25;;;2.45;;
58842;SDS011;44614;54.356;10.100;2023-03-23T14:51:18;15.07;;;2.87;;
58842;SDS011;44614;54.356;10.100;2023-03-23T14:53:45;12.70;;;2.80;;
58842;SDS011;44614;54.356;10.100;2023-03-23T14:56:13;14.43;;;2.97;;
58842;SDS011;44614;54.356;10.100;2023-03-23T14:58:44;9.10;;;2.17;;
58842;SDS011;44614;54.356;10.100;2023-03-23T15:01:13;14.68;;;2.30;;
58842;SDS011;44614;54.356;10.100;2023-03-23T15:04:06;7.38;;;1.75;;
58842;SDS011;44614;54.356;10.100;2023-03-23T15:06:34;7.65;;;2.25;;
58842;SDS011;44614;54.356;10.100;2023-03-23T15:09:03;10.07;;;2.42;;
58842;SDS011;44614;54.356;10.100;2023-03-23T15:11:37;15.45;;;2.42;;
58842;SDS011;44614;54.356;10.100;2023-03-23T15:14:18;7.55;;;1.80;;
58842;SDS011;44614;54.356;10.100;2023-03-23T15:16:48;15.80;;;2.05;;
58842;SDS011;44614;54.356;10.100;2023-03-23T15:19:40;11.80;;;2.42;;
58842;SDS011;44614;54.356;10.100;2023-03-23T15:25:07;9.30;;;1.77;;
58842;SDS011;44614;54.356;10.100;2023-03-23T15:27:42;12.15;;;1.75;;
58842;SDS011;44614;54.356;10.100;2023-03-23T15:32:51;8.18;;;2.13;;
58842;SDS011;44614;54.356;10.100;2023-03-23T15:35:20;13.18;;;1.88;;
58842;SDS011;44614;54.356;10.100;2023-03-23T15:37:47;6.90;;;1.58;;
58842;SDS011;44614;54.356;10.100;2023-03-23T15:40:16;11.70;;;2.17;;
58842;SDS011;44614;54.356;10.100;2023-03-23T15:42:44;9.68;;;2.72;;
58842;SDS011;44614;54.356;10.100;2023-03-23T15:47:36;6.77;;;1.50;;
58842;SDS011;44614;54.356;10.100;2023-03-23T15:50:03;12.18;;;1.95;;
58842;SDS011;44614;54.356;10.100;2023-03-23T15:52:38;11.63;;;2.35;;
58842;SDS011;44614;54.356;10.100;2023-03-23T15:55:14;9.97;;;3.07;;
58842;SDS011;44614;54.356;10.100;2023-03-23T15:57:44;12.02;;;2.38;;
58842;SDS011;44614;54.356;10.100;2023-03-23T16:00:10;10.93;;;2.07;;
58842;SDS011;44614;54.356;10.100;2023-03-23T16:02:36;12.90;;;2.60;;
58842;SDS011;44614;54.356;10.100;2023-03-23T16:05:02;6.60;;;2.57;;
58842;SDS011;44614;54.356;10.100;2023-03-23T16:07:27;14.17;;;2.10;;
58842;SDS011;44614;54.356;10.100;2023-03-23T16:09:52;12.20;;;2.47;;
58842;SDS011;44614;54.356;10.100;2023-03-23T16:12:18;10.30;;;2.10;;
58842;SDS011;44614;54.356;10.100;2023-03-23T16:14:43;6.47;;;1.97;;
58842;SDS011;44614;54.356;10.100;2023-03-23T16:17:13;12.03;;;3.73;;
58842;SDS011;44614;54.356;10.100;2023-03-23T16:19:42;11.00;;;2.08;;
58842;SDS011;44614;54.356;10.100;2023-03-23T16:22:08;12.83;;;2.20;;
58842;SDS011;44614;54.356;10.100;2023-03-23T16:24:34;6.38;;;2.30;;
58842;SDS011;44614;54.356;10.100;2023-03-23T16:26:59;11.10;;;2.63;;
58842;SDS011;44614;54.356;10.100;2023-03-23T16:29:24;11.17;;;2.77;;
58842;SDS011;44614;54.356;10.100;2023-03-23T16:31:50;11.63;;;2.17;;
58842;SDS011;44614;54.356;10.100;2023-03-23T16:34:15;7.35;;;2.15;;
58842;SDS011;44614;54.356;10.100;2023-03-23T16:36:40;8.47;;;2.57;;
58842;SDS011;44614;54.356;10.100;2023-03-23T16:39:06;9.87;;;2.23;;
58842;SDS011;44614;54.356;10.100;2023-03-23T16:41:31;9.40;;;3.47;;
58842;SDS011;44614;54.356;10.100;2023-03-23T16:43:57;9.57;;;2.27;;
58842;SDS011;44614;54.356;10.100;2023-03-23T16:46:22;7.57;;;1.70;;
58842;SDS011;44614;54.356;10.100;2023-03-23T16:48:48;9.00;;;2.22;;
58842;SDS011;44614;54.356;10.100;2023-03-23T16:51:13;8.03;;;2.03;;
58842;SDS011;44614;54.356;10.100;2023-03-23T16:53:39;13.13;;;1.87;;
58842;SDS011;44614;54.356;10.100;2023-03-23T16:56:05;7.35;;;2.22;;
58842;SDS011;44614;54.356;10.100;2023-03-23T16:58:30;11.00;;;2.15;;
58842;SDS011;44614;54.356;10.100;2023-03-23T17:00:56;15.07;;;2.77;;
58842;SDS011;44614;54.356;10.100;2023-03-23T17:03:21;14.77;;;2.50;;
58842;SDS011;44614;54.356;10.100;2023-03-23T17:05:47;14.73;;;2.07;;